Time;durP1;ratioP1;P1;durP2;ratioP2;P2;SDS_P1;SDS_P2;PMS_P1;PMS_P2;Temp;Humidity;BMP_temperature;BMP_pressure;BME280_temperature;BME280_humidity;BME280_pressure;Samples;Min_cycle;Max_cycle;Signal;HPM_P1;HPM_P2
2022/03/25 00:01:31;;;;;;;17.25;5.32;;;;;;;;;;5052309;28;20021;-63
2022/03/25 00:03:57;;;;;;;10.50;5.10;;;;;;;;;;5050685;28;20021;-62
2022/03/25 00:06:26;;;;;;;10.55;5.35;;;;;;;;;;5049884;28;20084;-64
2022/03/25 00:08:52;;;;;;;18.02;5.55;;;;;;;;;;5051982;28;20472;-62
2022/03/25 00:11:18;;;;;;;9.05;4.28;;;;;;;;;;5052116;28;20033;-62
2022/03/25 00:13:44;;;;;;;10.30;4.93;;;;;;;;;;5051941;28;20025;-62
2022/03/25 00:16:10;;;;;;;8.82;5.18;;;;;;;;;;5037022;28;20029;-63
2022/03/25 00:18:36;;;;;;;9.80;5.03;;;;;;;;;;5031763;28;20025;-63
2022/03/25 00:21:03;;;;;;;9.55;5.32;;;;;;;;;;5031604;28;20029;-63
2022/03/25 00:23:29;;;;;;;16.02;5.45;;;;;;;;;;5031762;28;20021;-62
2022/03/25 00:25:56;;;;;;;11.43;5.70;;;;;;;;;;5031874;28;20492;-64
2022/03/25 00:28:22;;;;;;;12.43;5.35;;;;;;;;;;5030252;28;20112;-63
2022/03/25 00:30:49;;;;;;;11.63;5.28;;;;;;;;;;5029667;28;20463;-63
2022/03/25 00:33:16;;;;;;;12.68;6.25;;;;;;;;;;5030936;28;20021;-63
2022/03/25 00:35:42;;;;;;;25.05;5.50;;;;;;;;;;5031506;28;20136;-66
2022/03/25 00:38:08;;;;;;;11.80;4.88;;;;;;;;;;5031674;28;20021;-63
2022/03/25 00:40:34;;;;;;;12.57;5.50;;;;;;;;;;5031515;28;20465;-66
2022/03/25 00:43:00;;;;;;;10.93;5.63;;;;;;;;;;5030077;28;20091;-64
2022/03/25 00:45:29;;;;;;;9.50;5.00;;;;;;;;;;5031604;28;20073;-63
2022/03/25 00:47:55;;;;;;;9.32;5.32;;;;;;;;;;5031749;28;20018;-64
2022/03/25 00:50:23;;;;;;;13.30;5.78;;;;;;;;;;5032403;28;20079;-63
2022/03/25 00:52:50;;;;;;;11.32;5.63;;;;;;;;;;5051328;28;20425;-63
2022/03/25 00:55:16;;;;;;;9.63;5.28;;;;;;;;;;5051497;28;20025;-65
2022/03/25 00:57:42;;;;;;;10.02;5.43;;;;;;;;;;5051689;28;20025;-62
2022/03/25 01:00:09;;;;;;;9.85;5.60;;;;;;;;;;5051341;28;20025;-62
2022/03/25 01:02:35;;;;;;;8.60;5.13;;;;;;;;;;5051382;28;20013;-63
2022/03/25 01:05:03;;;;;;;14.23;5.20;;;;;;;;;;5051339;28;20068;-65
2022/03/25 01:07:29;;;;;;;10.00;5.22;;;;;;;;;;5051571;28;20033;-66
2022/03/25 01:09:55;;;;;;;10.10;5.00;;;;;;;;;;5051627;28;20025;-65
2022/03/25 01:12:21;;;;;;;10.20;5.38;;;;;;;;;;5051433;28;20025;-63
2022/03/25 01:14:48;;;;;;;9.70;5.25;;;;;;;;;;5051595;28;20025;-62
2022/03/25 01:17:14;;;;;;;9.32;5.35;;;;;;;;;;5054421;28;20094;-64
2022/03/25 01:19:41;;;;;;;10.02;5.22;;;;;;;;;;5055131;28;20017;-64
2022/03/25 01:22:07;;;;;;;9.40;5.38;;;;;;;;;;5055207;28;20032;-64
2022/03/25 01:24:33;;;;;;;8.82;5.07;;;;;;;;;;5055306;28;20032;-63
2022/03/25 01:27:00;;;;;;;8.00;4.55;;;;;;;;;;5055223;28;20021;-63
2022/03/25 01:29:27;;;;;;;11.85;4.90;;;;;;;;;;5055131;28;20104;-63
2022/03/25 01:31:56;;;;;;;11.80;5.57;;;;;;;;;;5055028;28;20028;-63
2022/03/25 01:34:22;;;;;;;11.48;5.85;;;;;;;;;;5054916;28;20104;-64
2022/03/25 01:36:49;;;;;;;9.85;5.22;;;;;;;;;;5054997;28;20025;-64
2022/03/25 01:39:15;;;;;;;7.95;4.70;;;;;;;;;;5055185;28;20104;-64
2022/03/25 01:41:41;;;;;;;9.13;4.80;;;;;;;;;;5055215;28;20424;-65
2022/03/25 01:44:11;;;;;;;8.57;4.65;;;;;;;;;;5053503;28;20111;-63
2022/03/25 01:46:37;;;;;;;10.38;4.65;;;;;;;;;;5054705;28;20028;-64
2022/03/25 01:49:05;;;;;;;9.05;4.40;;;;;;;;;;5054598;28;20045;-65
2022/03/25 01:51:34;;;;;;;9.52;5.05;;;;;;;;;;5054581;28;20148;-64
2022/03/25 01:54:18;;;;;;;9.15;5.00;;;;;;;;;;5054548;28;20056;-64
2022/03/25 01:56:44;;;;;;;8.68;4.97;;;;;;;;;;5054634;28;20568;-64
2022/03/25 01:59:10;;;;;;;8.82;4.53;;;;;;;;;;5054298;28;20144;-63
2022/03/25 02:01:39;;;;;;;10.00;5.05;;;;;;;;;;5054209;28;20359;-63
2022/03/25 02:04:05;;;;;;;9.38;4.80;;;;;;;;;;5054042;28;20021;-64
2022/03/25 02:06:31;;;;;;;10.80;5.20;;;;;;;;;;5054200;28;20040;-65
2022/03/25 02:08:57;;;;;;;10.80;5.07;;;;;;;;;;5054187;28;20021;-64
2022/03/25 02:11:23;;;;;;;8.75;5.00;;;;;;;;;;5054571;28;20027;-63
2022/03/25 02:13:49;;;;;;;8.57;4.63;;;;;;;;;;5054509;28;20047;-65
2022/03/25 02:16:15;;;;;;;10.20;5.18;;;;;;;;;;5054237;28;20380;-63
2022/03/25 02:18:41;;;;;;;10.90;4.72;;;;;;;;;;5054156;28;20025;-62
2022/03/25 02:21:07;;;;;;;9.75;4.85;;;;;;;;;;5054132;28;20035;-64
2022/03/25 02:23:33;;;;;;;10.20;5.15;;;;;;;;;;5054026;28;20021;-62
2022/03/25 02:26:00;;;;;;;9.60;4.80;;;;;;;;;;5053954;28;20108;-63
2022/03/25 02:28:26;;;;;;;8.13;4.22;;;;;;;;;;5053222;28;20032;-63
2022/03/25 02:30:52;;;;;;;8.93;4.75;;;;;;;;;;5065288;28;20033;-61
2022/03/25 02:33:18;;;;;;;10.05;4.90;;;;;;;;;;5034082;28;20022;-63
2022/03/25 02:35:46;;;;;;;11.23;4.65;;;;;;;;;;5033844;28;20028;-61
2022/03/25 02:38:13;;;;;;;9.35;4.72;;;;;;;;;;5033869;28;20356;-61
2022/03/25 02:40:40;;;;;;;9.05;4.72;;;;;;;;;;5033398;28;20053;-62
2022/03/25 02:43:06;;;;;;;8.18;4.68;;;;;;;;;;5033106;28;20021;-63
2022/03/25 02:45:33;;;;;;;11.93;5.43;;;;;;;;;;5033778;28;20034;-63
2022/03/25 02:48:00;;;;;;;9.45;4.72;;;;;;;;;;5033827;28;20112;-65
2022/03/25 02:50:26;;;;;;;13.70;5.70;;;;;;;;;;5034959;28;20026;-62
2022/03/25 02:52:54;;;;;;;9.68;5.25;;;;;;;;;;5053525;28;20429;-64
2022/03/25 02:55:20;;;;;;;9.00;4.85;;;;;;;;;;5055579;28;20021;-65
2022/03/25 02:57:46;;;;;;;11.15;4.78;;;;;;;;;;5052159;28;20483;-63
2022/03/25 03:00:12;;;;;;;10.32;4.75;;;;;;;;;;5053316;28;20024;-62
2022/03/25 03:02:38;;;;;;;10.50;5.30;;;;;;;;;;5053332;28;20025;-63
2022/03/25 03:05:07;;;;;;;8.73;5.20;;;;;;;;;;5053329;28;20134;-63
2022/03/25 03:07:34;;;;;;;9.75;4.47;;;;;;;;;;5052063;28;20049;-62
2022/03/25 03:10:00;;;;;;;9.07;4.60;;;;;;;;;;5053157;28;20017;-62
2022/03/25 03:12:27;;;;;;;10.60;4.28;;;;;;;;;;5053207;28;20024;-62
2022/03/25 03:14:53;;;;;;;10.30;4.55;;;;;;;;;;5052982;28;20025;-62
2022/03/25 03:17:19;;;;;;;11.07;4.85;;;;;;;;;;5053008;28;20013;-62
2022/03/25 03:19:45;;;;;;;10.77;5.40;;;;;;;;;;5052813;28;20029;-62
2022/03/25 03:22:11;;;;;;;9.35;4.50;;;;;;;;;;5052838;28;20029;-63
2022/03/25 03:24:37;;;;;;;11.07;4.78;;;;;;;;;;5052633;28;20039;-62
2022/03/25 03:27:03;;;;;;;9.25;4.75;;;;;;;;;;5051236;28;20020;-63
2022/03/25 03:29:29;;;;;;;9.65;4.75;;;;;;;;;;5052832;28;20086;-64
2022/03/25 03:31:55;;;;;;;9.15;4.80;;;;;;;;;;5052897;28;20022;-61
2022/03/25 03:34:22;;;;;;;9.55;4.85;;;;;;;;;;5052876;28;20495;-62
2022/03/25 03:36:48;;;;;;;9.38;5.03;;;;;;;;;;5052719;28;20029;-65
2022/03/25 03:39:14;;;;;;;11.40;5.18;;;;;;;;;;5052212;28;20128;-62
2022/03/25 03:41:40;;;;;;;10.40;4.72;;;;;;;;;;5052460;28;20530;-64
2022/03/25 03:44:06;;;;;;;8.90;5.03;;;;;;;;;;5052424;28;20379;-63
2022/03/25 03:46:33;;;;;;;10.70;5.43;;;;;;;;;;5052444;28;20096;-64
2022/03/25 03:48:59;;;;;;;11.00;5.13;;;;;;;;;;5052433;28;20034;-65
2022/03/25 03:51:25;;;;;;;11.77;4.82;;;;;;;;;;5052480;28;20044;-64
2022/03/25 03:53:51;;;;;;;10.73;5.15;;;;;;;;;;5052549;28;20060;-62
2022/03/25 03:56:17;;;;;;;9.80;4.93;;;;;;;;;;5052603;28;20029;-63
2022/03/25 03:58:43;;;;;;;9.95;5.30;;;;;;;;;;5052195;28;20079;-64
2022/03/25 04:01:10;;;;;;;12.30;5.20;;;;;;;;;;5052200;28;20054;-64
2022/03/25 04:03:36;;;;;;;9.85;5.07;;;;;;;;;;5052086;28;20053;-63
2022/03/25 04:06:03;;;;;;;11.00;4.90;;;;;;;;;;5052024;28;20504;-64
2022/03/25 04:08:29;;;;;;;10.77;5.20;;;;;;;;;;5051983;28;20024;-63
2022/03/25 04:10:55;;;;;;;11.63;5.30;;;;;;;;;;5051716;28;20107;-63
2022/03/25 04:13:21;;;;;;;8.30;4.40;;;;;;;;;;5051457;28;20059;-63
2022/03/25 04:15:47;;;;;;;10.38;4.93;;;;;;;;;;5052219;28;20096;-63
2022/03/25 04:18:13;;;;;;;9.73;4.60;;;;;;;;;;5051779;28;20048;-63
2022/03/25 04:20:39;;;;;;;10.55;4.72;;;;;;;;;;5051705;28;20472;-63
2022/03/25 04:23:05;;;;;;;7.93;4.00;;;;;;;;;;5051924;28;20108;-63
2022/03/25 04:25:31;;;;;;;7.07;4.03;;;;;;;;;;5051814;28;20127;-63
2022/03/25 04:27:58;;;;;;;9.02;4.68;;;;;;;;;;5052101;28;20075;-63
2022/03/25 04:30:26;;;;;;;8.02;4.70;;;;;;;;;;5051754;28;20100;-64
2022/03/25 04:32:52;;;;;;;9.48;4.60;;;;;;;;;;5051672;28;20123;-64
2022/03/25 04:35:19;;;;;;;8.30;4.40;;;;;;;;;;5051865;28;20031;-63
2022/03/25 04:37:46;;;;;;;7.60;4.32;;;;;;;;;;5051705;28;20024;-64
2022/03/25 04:40:13;;;;;;;9.10;4.78;;;;;;;;;;5051727;28;20017;-64
2022/03/25 04:42:39;;;;;;;12.95;4.57;;;;;;;;;;5051864;28;20068;-62
2022/03/25 04:45:05;;;;;;;10.00;4.35;;;;;;;;;;5051081;28;20052;-63
2022/03/25 04:47:31;;;;;;;8.90;4.63;;;;;;;;;;5051039;28;20021;-65
2022/03/25 04:49:57;;;;;;;11.52;4.82;;;;;;;;;;5050302;28;20025;-65
2022/03/25 04:52:23;;;;;;;12.40;5.30;;;;;;;;;;5055073;28;20531;-65
2022/03/25 04:54:50;;;;;;;9.77;4.85;;;;;;;;;;5055659;28;20029;-63
2022/03/25 04:57:17;;;;;;;9.18;4.70;;;;;;;;;;5054450;28;20029;-64
2022/03/25 04:59:43;;;;;;;9.20;4.55;;;;;;;;;;5055861;28;20029;-64
2022/03/25 05:02:10;;;;;;;11.75;4.75;;;;;;;;;;5055615;28;20024;-65
2022/03/25 05:04:36;;;;;;;8.98;4.75;;;;;;;;;;5055166;28;20041;-65
2022/03/25 05:07:02;;;;;;;10.60;4.68;;;;;;;;;;5055428;28;20385;-62
2022/03/25 05:09:28;;;;;;;10.63;4.03;;;;;;;;;;5055406;28;20036;-66
2022/03/25 05:11:54;;;;;;;8.55;4.68;;;;;;;;;;5055180;28;20029;-64
2022/03/25 05:14:20;;;;;;;9.13;5.20;;;;;;;;;;5055258;28;20043;-62
2022/03/25 05:16:52;;;;;;;9.07;4.60;;;;;;;;;;5054717;28;20116;-62
2022/03/25 05:19:21;;;;;;;9.00;4.43;;;;;;;;;;5055080;28;20100;-63
2022/03/25 05:21:47;;;;;;;8.73;4.22;;;;;;;;;;5054968;28;20021;-62
2022/03/25 05:24:13;;;;;;;8.27;4.25;;;;;;;;;;5055164;28;20090;-62
2022/03/25 05:26:40;;;;;;;11.95;4.65;;;;;;;;;;5070556;28;20388;-62
2022/03/25 05:29:07;;;;;;;11.30;4.60;;;;;;;;;;5055186;28;20017;-64
2022/03/25 05:31:33;;;;;;;16.42;4.93;;;;;;;;;;5055259;28;20029;-62
2022/03/25 05:33:59;;;;;;;12.77;5.13;;;;;;;;;;5055127;28;20017;-62
2022/03/25 05:36:25;;;;;;;13.00;5.03;;;;;;;;;;5055099;28;20112;-61
2022/03/25 05:38:51;;;;;;;8.55;4.47;;;;;;;;;;5054983;28;20013;-63
2022/03/25 05:41:18;;;;;;;10.95;5.40;;;;;;;;;;5054893;28;20064;-62
2022/03/25 05:43:44;;;;;;;13.85;5.75;;;;;;;;;;5054627;28;20024;-64
2022/03/25 05:46:10;;;;;;;12.13;6.30;;;;;;;;;;5054916;28;20126;-61
2022/03/25 05:48:36;;;;;;;48.13;23.90;;;;;;;;;;5054813;28;20048;-62
2022/03/25 05:51:02;;;;;;;36.90;17.98;;;;;;;;;;5054620;28;20112;-64
2022/03/25 05:53:28;;;;;;;35.15;18.40;;;;;;;;;;5054626;28;20079;-61
2022/03/25 05:55:54;;;;;;;31.13;16.40;;;;;;;;;;5055018;28;20120;-63
2022/03/25 05:58:20;;;;;;;30.27;17.10;;;;;;;;;;5054132;28;20095;-61
2022/03/25 06:00:46;;;;;;;33.17;15.35;;;;;;;;;;5054323;28;20031;-63
2022/03/25 06:03:12;;;;;;;31.25;14.73;;;;;;;;;;5053224;28;20071;-62
2022/03/25 06:05:38;;;;;;;27.38;12.98;;;;;;;;;;5052885;28;20144;-61
2022/03/25 06:08:04;;;;;;;27.42;13.15;;;;;;;;;;5054192;28;20027;-64
2022/03/25 06:10:30;;;;;;;27.05;13.25;;;;;;;;;;5053856;28;20117;-63
2022/03/25 06:12:56;;;;;;;26.15;13.02;;;;;;;;;;5052757;28;20023;-62
2022/03/25 06:15:22;;;;;;;32.92;13.68;;;;;;;;;;5054210;28;20100;-62
2022/03/25 06:17:50;;;;;;;24.50;11.38;;;;;;;;;;5054169;28;20021;-63
2022/03/25 06:20:20;;;;;;;23.50;11.18;;;;;;;;;;5053592;28;20025;-63
2022/03/25 06:22:48;;;;;;;24.05;10.55;;;;;;;;;;5052110;28;20044;-64
2022/03/25 06:25:14;;;;;;;25.85;10.30;;;;;;;;;;5052018;28;20124;-64
2022/03/25 06:27:46;;;;;;;21.33;10.65;;;;;;;;;;5051697;28;20444;-64
2022/03/25 06:30:13;;;;;;;23.90;10.55;;;;;;;;;;5050510;28;20059;-63
2022/03/25 06:32:40;;;;;;;33.78;11.13;;;;;;;;;;5050342;28;20020;-64
2022/03/25 06:35:07;;;;;;;23.40;8.55;;;;;;;;;;5053466;28;20093;-62
2022/03/25 06:37:33;;;;;;;21.75;9.15;;;;;;;;;;5053467;28;20051;-63
2022/03/25 06:39:59;;;;;;;28.10;10.25;;;;;;;;;;5053038;28;20017;-64
2022/03/25 06:42:25;;;;;;;18.77;8.35;;;;;;;;;;5052929;28;20025;-63
2022/03/25 06:44:52;;;;;;;17.98;8.88;;;;;;;;;;5053533;28;20052;-63
2022/03/25 06:47:18;;;;;;;16.35;8.60;;;;;;;;;;5053735;28;20024;-64
2022/03/25 06:49:44;;;;;;;18.50;8.68;;;;;;;;;;5051711;28;20013;-62
2022/03/25 06:52:10;;;;;;;16.48;8.05;;;;;;;;;;5052883;28;20021;-61
2022/03/25 06:54:36;;;;;;;14.40;7.50;;;;;;;;;;5051228;28;20028;-62
2022/03/25 06:57:03;;;;;;;17.23;9.43;;;;;;;;;;5052667;28;20673;-63
2022/03/25 06:59:29;;;;;;;15.32;7.65;;;;;;;;;;5052766;28;20028;-64
2022/03/25 07:01:55;;;;;;;18.13;8.30;;;;;;;;;;5052506;28;20423;-64
2022/03/25 07:04:21;;;;;;;19.13;7.57;;;;;;;;;;5052285;28;20025;-63
2022/03/25 07:06:49;;;;;;;16.55;7.63;;;;;;;;;;5051855;28;20134;-63
2022/03/25 07:09:15;;;;;;;15.45;7.38;;;;;;;;;;5050828;28;20468;-62
2022/03/25 07:11:42;;;;;;;15.18;7.90;;;;;;;;;;5051897;28;20104;-63
2022/03/25 07:14:08;;;;;;;15.43;6.43;;;;;;;;;;5052074;28;20024;-63
2022/03/25 07:16:34;;;;;;;17.40;6.72;;;;;;;;;;5052233;28;20019;-64
2022/03/25 07:19:00;;;;;;;14.68;7.20;;;;;;;;;;5052126;28;20043;-64
2022/03/25 07:21:26;;;;;;;12.63;6.47;;;;;;;;;;5052094;28;20075;-64
2022/03/25 07:23:53;;;;;;;15.40;6.80;;;;;;;;;;5051596;28;20087;-62
2022/03/25 07:26:19;;;;;;;13.32;6.95;;;;;;;;;;5052098;28;20028;-63
2022/03/25 07:28:45;;;;;;;12.52;6.38;;;;;;;;;;5051808;28;20044;-63
2022/03/25 07:31:11;;;;;;;13.68;7.32;;;;;;;;;;5052238;28;20029;-64
2022/03/25 07:33:37;;;;;;;14.90;6.68;;;;;;;;;;5052377;28;20009;-62
2022/03/25 07:36:03;;;;;;;13.35;7.07;;;;;;;;;;5052405;28;20029;-63
2022/03/25 07:38:29;;;;;;;14.57;6.93;;;;;;;;;;5051619;28;20056;-62
2022/03/25 07:40:56;;;;;;;14.57;6.55;;;;;;;;;;5051816;28;20056;-62
2022/03/25 07:43:22;;;;;;;12.32;5.90;;;;;;;;;;5052125;28;20013;-63
2022/03/25 07:45:48;;;;;;;11.75;6.50;;;;;;;;;;5050508;28;20024;-63
2022/03/25 07:48:14;;;;;;;12.00;6.78;;;;;;;;;;5051764;28;20097;-62
2022/03/25 07:50:40;;;;;;;11.57;6.00;;;;;;;;;;5051573;28;20032;-62
2022/03/25 07:53:06;;;;;;;11.10;6.50;;;;;;;;;;5051974;28;20345;-62
2022/03/25 07:55:33;;;;;;;12.90;6.47;;;;;;;;;;5050215;28;20059;-62
2022/03/25 07:57:59;;;;;;;168.50;16.50;;;;;;;;;;5051992;28;20063;-65
2022/03/25 08:00:25;;;;;;;53.25;8.10;;;;;;;;;;5052135;28;20082;-62
2022/03/25 08:02:52;;;;;;;21.48;6.60;;;;;;;;;;5052396;28;20039;-62
2022/03/25 08:05:18;;;;;;;29.25;7.25;;;;;;;;;;5050574;28;20045;-63
2022/03/25 08:07:49;;;;;;;24.73;8.18;;;;;;;;;;5051812;28;20087;-62
2022/03/25 08:10:18;;;;;;;17.13;6.75;;;;;;;;;;5052151;28;20115;-63
2022/03/25 08:12:45;;;;;;;26.05;7.18;;;;;;;;;;5052213;28;20017;-62
2022/03/25 08:15:11;;;;;;;19.88;7.80;;;;;;;;;;5051954;28;20032;-62
2022/03/25 08:17:46;;;;;;;19.85;8.02;;;;;;;;;;5051827;28;20087;-62
2022/03/25 08:20:13;;;;;;;19.67;6.75;;;;;;;;;;5051981;28;20446;-64
2022/03/25 08:22:39;;;;;;;22.95;7.63;;;;;;;;;;5051854;28;20025;-64
2022/03/25 08:27:50;;;;;;;12.70;5.50;;;;;;;;;;5051854;28;20121;-63
2022/03/25 08:30:16;;;;;;;18.98;6.32;;;;;;;;;;5051743;28;20025;-63
2022/03/25 08:32:42;;;;;;;16.38;6.82;;;;;;;;;;5030306;28;20025;-64
2022/03/25 08:35:08;;;;;;;14.80;5.38;;;;;;;;;;5031946;28;20105;-62
2022/03/25 08:37:35;;;;;;;13.77;5.28;;;;;;;;;;5031827;28;20022;-62
2022/03/25 08:40:03;;;;;;;11.65;4.85;;;;;;;;;;5031735;28;20109;-62
2022/03/25 08:42:29;;;;;;;13.40;5.07;;;;;;;;;;5031522;28;20023;-63
2022/03/25 08:44:56;;;;;;;12.05;5.25;;;;;;;;;;5031916;28;20033;-63
2022/03/25 08:47:22;;;;;;;14.00;4.50;;;;;;;;;;5046898;28;20393;-62
2022/03/25 08:49:48;;;;;;;12.07;4.97;;;;;;;;;;5046489;28;20456;-62
2022/03/25 08:52:14;;;;;;;11.90;5.00;;;;;;;;;;5051343;28;20033;-62
2022/03/25 08:54:40;;;;;;;14.70;5.40;;;;;;;;;;5048098;28;20029;-63
2022/03/25 08:57:07;;;;;;;14.88;5.05;;;;;;;;;;5052755;28;20112;-62
2022/03/25 08:59:33;;;;;;;8.50;4.35;;;;;;;;;;5046857;28;20025;-61
2022/03/25 09:01:59;;;;;;;12.82;4.75;;;;;;;;;;5034977;28;20465;-62
2022/03/25 09:04:25;;;;;;;11.25;5.70;;;;;;;;;;5050587;28;20037;-61
2022/03/25 09:06:51;;;;;;;17.95;5.20;;;;;;;;;;5050411;28;20129;-62
2022/03/25 09:09:17;;;;;;;9.68;4.90;;;;;;;;;;5050681;28;20017;-61
2022/03/25 09:11:43;;;;;;;14.75;5.72;;;;;;;;;;5035395;28;20026;-63
2022/03/25 09:14:09;;;;;;;9.85;5.10;;;;;;;;;;5049480;28;20025;-62
2022/03/25 09:16:35;;;;;;;11.38;5.07;;;;;;;;;;5050477;28;20025;-61
2022/03/25 09:19:01;;;;;;;9.85;5.38;;;;;;;;;;5050586;28;20052;-61
2022/03/25 09:21:27;;;;;;;11.55;5.07;;;;;;;;;;5050542;28;20025;-62
2022/03/25 09:23:53;;;;;;;17.02;5.18;;;;;;;;;;5033831;28;20021;-62
2022/03/25 09:26:19;;;;;;;12.57;5.88;;;;;;;;;;5032566;28;20048;-62
2022/03/25 09:28:45;;;;;;;18.00;5.95;;;;;;;;;;5049616;28;20090;-63
2022/03/25 09:31:12;;;;;;;10.93;5.65;;;;;;;;;;5050583;28;20025;-62
2022/03/25 09:33:38;;;;;;;11.73;5.47;;;;;;;;;;5050599;28;20021;-63
2022/03/25 09:36:04;;;;;;;14.68;5.60;;;;;;;;;;5050600;28;20025;-62
2022/03/25 09:38:30;;;;;;;10.95;5.63;;;;;;;;;;5036915;28;20022;-63
2022/03/25 09:40:58;;;;;;;16.30;5.00;;;;;;;;;;5050483;28;20033;-63
2022/03/25 09:43:25;;;;;;;11.07;5.15;;;;;;;;;;5041971;28;20051;-62
2022/03/25 09:45:51;;;;;;;12.75;5.60;;;;;;;;;;5049906;28;20036;-63
2022/03/25 09:48:17;;;;;;;24.67;7.80;;;;;;;;;;5053781;28;20052;-61
2022/03/25 09:50:43;;;;;;;27.98;5.70;;;;;;;;;;5053309;28;20021;-64
2022/03/25 09:53:09;;;;;;;14.45;5.57;;;;;;;;;;5053408;28;20476;-63
2022/03/25 09:55:40;;;;;;;15.57;5.32;;;;;;;;;;5054089;28;20069;-62
2022/03/25 09:58:06;;;;;;;12.20;5.07;;;;;;;;;;5053973;28;20021;-64
2022/03/25 10:00:33;;;;;;;14.45;5.40;;;;;;;;;;5054376;28;20021;-64
2022/03/25 10:02:59;;;;;;;14.55;5.22;;;;;;;;;;5054394;28;20029;-64
2022/03/25 10:05:25;;;;;;;13.20;4.97;;;;;;;;;;5053570;28;20085;-62
2022/03/25 10:07:55;;;;;;;15.25;5.30;;;;;;;;;;5053924;28;20075;-65
2022/03/25 10:10:30;;;;;;;27.20;5.70;;;;;;;;;;5051739;28;20038;-65
2022/03/25 10:13:05;;;;;;;13.25;5.60;;;;;;;;;;5035682;28;20056;-65
2022/03/25 10:15:32;;;;;;;17.30;6.38;;;;;;;;;;5040345;28;20380;-65
2022/03/25 10:17:58;;;;;;;13.70;5.45;;;;;;;;;;5054129;28;20021;-65
2022/03/25 10:20:29;;;;;;;12.90;5.28;;;;;;;;;;5053947;28;20046;-64
2022/03/25 10:22:58;;;;;;;13.55;5.25;;;;;;;;;;5049407;28;20453;-63
2022/03/25 10:25:34;;;;;;;19.17;5.45;;;;;;;;;;5044501;28;20040;-63
2022/03/25 10:28:00;;;;;;;13.90;4.15;;;;;;;;;;5053010;28;20021;-63
2022/03/25 10:30:40;;;;;;;11.25;5.03;;;;;;;;;;5052728;28;20342;-63
2022/03/25 10:33:10;;;;;;;16.55;5.32;;;;;;;;;;5052891;28;20032;-63
2022/03/25 10:35:56;;;;;;;28.92;5.45;;;;;;;;;;5053040;28;20024;-63
2022/03/25 10:38:22;;;;;;;11.50;4.90;;;;;;;;;;5052919;28;20061;-63
2022/03/25 10:40:49;;;;;;;12.48;4.57;;;;;;;;;;5048423;28;20020;-63
2022/03/25 10:43:16;;;;;;;13.55;4.85;;;;;;;;;;5032862;28;20021;-63
2022/03/25 10:45:42;;;;;;;13.57;4.63;;;;;;;;;;5032543;28;20037;-63
2022/03/25 10:48:12;;;;;;;10.15;4.47;;;;;;;;;;5032592;28;20029;-62
2022/03/25 10:50:56;;;;;;;12.75;4.35;;;;;;;;;;5032545;28;20405;-63
2022/03/25 10:53:23;;;;;;;17.33;4.78;;;;;;;;;;5032330;28;20020;-63
2022/03/25 10:55:54;;;;;;;8.85;4.43;;;;;;;;;;5042903;28;20079;-63
2022/03/25 10:58:20;;;;;;;11.43;4.53;;;;;;;;;;5052125;28;20027;-63
2022/03/25 11:00:46;;;;;;;10.25;4.43;;;;;;;;;;5052280;28;20545;-63
2022/03/25 11:03:16;;;;;;;11.25;4.35;;;;;;;;;;5052479;28;20082;-63
2022/03/25 11:05:43;;;;;;;10.52;4.18;;;;;;;;;;5052477;28;20404;-63
2022/03/25 11:08:09;;;;;;;8.20;4.28;;;;;;;;;;5039743;28;20025;-63
2022/03/25 11:10:35;;;;;;;6.53;3.95;;;;;;;;;;5032260;28;20022;-63
2022/03/25 11:13:05;;;;;;;9.48;4.68;;;;;;;;;;5032466;28;20014;-63
2022/03/25 11:15:32;;;;;;;9.25;3.88;;;;;;;;;;5032672;28;20397;-63
2022/03/25 11:17:58;;;;;;;10.30;4.00;;;;;;;;;;5041842;28;20060;-63
2022/03/25 11:20:25;;;;;;;8.55;4.55;;;;;;;;;;5052505;28;20602;-63
2022/03/25 11:23:06;;;;;;;11.48;4.38;;;;;;;;;;5052701;28;20460;-63
2022/03/25 11:25:36;;;;;;;8.38;3.85;;;;;;;;;;5033830;28;20044;-63
2022/03/25 11:28:08;;;;;;;9.23;3.75;;;;;;;;;;5031922;28;20025;-63
2022/03/25 11:30:35;;;;;;;7.90;3.63;;;;;;;;;;5031826;28;20377;-63
2022/03/25 11:33:04;;;;;;;16.00;4.05;;;;;;;;;;5032457;28;20018;-63
2022/03/25 11:35:38;;;;;;;6.55;3.53;;;;;;;;;;5041443;28;20415;-63
2022/03/25 11:38:11;;;;;;;8.25;3.40;;;;;;;;;;5066785;28;20103;-64
2022/03/25 11:40:42;;;;;;;7.55;3.30;;;;;;;;;;5067484;28;20490;-64
2022/03/25 11:43:21;;;;;;;7.03;3.40;;;;;;;;;;5052462;28;20037;-64
2022/03/25 11:46:09;;;;;;;8.45;3.33;;;;;;;;;;5052096;28;20037;-64
2022/03/25 11:48:37;;;;;;;7.10;3.25;;;;;;;;;;5066947;28;20032;-63
2022/03/25 11:51:23;;;;;;;7.03;3.42;;;;;;;;;;5051191;28;20107;-63
2022/03/25 11:53:49;;;;;;;9.68;3.83;;;;;;;;;;5050354;28;20503;-63
2022/03/25 11:56:15;;;;;;;10.23;3.60;;;;;;;;;;5036650;28;20028;-63
2022/03/25 11:59:01;;;;;;;9.75;3.78;;;;;;;;;;5038257;28;20028;-64
2022/03/25 12:01:27;;;;;;;9.88;3.15;;;;;;;;;;5046930;28;20096;-64
2022/03/25 12:03:58;;;;;;;10.50;3.75;;;;;;;;;;5047538;28;20690;-64
2022/03/25 12:06:28;;;;;;;11.82;3.90;;;;;;;;;;5050329;28;20055;-63
2022/03/25 12:09:07;;;;;;;9.82;3.80;;;;;;;;;;5050240;28;20021;-63
2022/03/25 12:11:51;;;;;;;8.82;3.22;;;;;;;;;;5050100;28;20492;-63
2022/03/25 12:14:18;;;;;;;12.70;3.17;;;;;;;;;;5049560;28;20049;-64
2022/03/25 12:16:47;;;;;;;10.43;2.83;;;;;;;;;;5050750;28;20484;-64
2022/03/25 12:19:26;;;;;;;11.63;3.40;;;;;;;;;;5045358;28;20059;-64
2022/03/25 12:22:15;;;;;;;11.52;3.40;;;;;;;;;;5039616;28;20025;-64
2022/03/25 12:24:41;;;;;;;8.48;2.83;;;;;;;;;;5033664;28;20119;-63
2022/03/25 12:27:08;;;;;;;13.63;3.72;;;;;;;;;;5050663;28;20522;-64
2022/03/25 12:29:38;;;;;;;11.02;3.83;;;;;;;;;;5050776;28;20126;-63
2022/03/25 12:32:05;;;;;;;9.43;3.33;;;;;;;;;;5049794;28;20064;-63
2022/03/25 12:34:49;;;;;;;8.27;2.70;;;;;;;;;;5050307;28;20554;-64
2022/03/25 12:37:24;;;;;;;12.75;3.20;;;;;;;;;;5046812;28;20374;-65
2022/03/25 12:39:50;;;;;;;8.98;2.63;;;;;;;;;;5044742;28;20045;-64
2022/03/25 12:42:17;;;;;;;16.20;3.47;;;;;;;;;;5047489;28;20060;-63
2022/03/25 12:44:43;;;;;;;7.07;2.65;;;;;;;;;;5050511;28;20053;-63
2022/03/25 12:47:15;;;;;;;6.85;2.40;;;;;;;;;;5050674;28;20090;-64
2022/03/25 12:49:41;;;;;;;9.88;2.83;;;;;;;;;;5048854;28;20024;-65
2022/03/25 12:52:07;;;;;;;6.43;2.70;;;;;;;;;;5051179;28;20029;-65
2022/03/25 12:54:34;;;;;;;8.18;2.35;;;;;;;;;;5050523;28;20036;-65
2022/03/25 12:57:01;;;;;;;7.05;2.40;;;;;;;;;;5050415;28;20025;-62
2022/03/25 12:59:33;;;;;;;9.48;2.78;;;;;;;;;;5050282;28;20025;-63
2022/03/25 13:02:10;;;;;;;7.15;3.15;;;;;;;;;;5048667;28;20025;-64
2022/03/25 13:04:36;;;;;;;5.57;2.63;;;;;;;;;;5049896;28;20044;-63
2022/03/25 13:07:09;;;;;;;8.60;2.40;;;;;;;;;;5050366;28;20029;-65
2022/03/25 13:09:35;;;;;;;9.90;2.88;;;;;;;;;;5050146;28;20017;-63
2022/03/25 13:12:02;;;;;;;9.80;3.03;;;;;;;;;;5051275;28;20029;-62
2022/03/25 13:14:29;;;;;;;5.90;2.60;;;;;;;;;;5052378;28;20125;-66
2022/03/25 13:16:55;;;;;;;6.80;2.72;;;;;;;;;;5055472;28;20464;-64
2022/03/25 13:19:30;;;;;;;8.27;2.63;;;;;;;;;;5053906;28;20075;-63
2022/03/25 13:21:57;;;;;;;6.85;2.70;;;;;;;;;;5055234;28;20024;-64
2022/03/25 13:24:24;;;;;;;5.55;2.70;;;;;;;;;;5053746;28;20025;-64
2022/03/25 13:26:50;;;;;;;5.88;2.35;;;;;;;;;;5055071;28;20029;-63
2022/03/25 13:29:16;;;;;;;5.97;2.65;;;;;;;;;;5055018;28;20017;-62
2022/03/25 13:31:49;;;;;;;5.97;2.38;;;;;;;;;;5054996;28;20025;-63
2022/03/25 13:34:18;;;;;;;6.43;2.45;;;;;;;;;;5054819;28;20096;-65
2022/03/25 13:36:52;;;;;;;5.32;2.35;;;;;;;;;;5052475;28;20029;-64
2022/03/25 13:39:19;;;;;;;5.80;2.55;;;;;;;;;;5036390;28;20052;-63
2022/03/25 13:41:45;;;;;;;6.45;2.28;;;;;;;;;;5034410;28;20427;-63
2022/03/25 13:44:13;;;;;;;6.72;2.50;;;;;;;;;;5034512;28;20361;-63
2022/03/25 13:46:39;;;;;;;7.75;2.70;;;;;;;;;;5035020;28;20036;-64
2022/03/25 13:49:12;;;;;;;5.80;2.45;;;;;;;;;;5034513;28;20021;-63
2022/03/25 13:51:39;;;;;;;5.18;2.00;;;;;;;;;;5034485;28;20021;-63
2022/03/25 13:54:06;;;;;;;6.55;2.45;;;;;;;;;;5034516;28;20017;-65
2022/03/25 13:56:43;;;;;;;7.20;2.35;;;;;;;;;;5037509;28;20112;-63
2022/03/25 13:59:11;;;;;;;5.55;2.58;;;;;;;;;;5034272;28;20105;-64
2022/03/25 14:01:40;;;;;;;6.07;2.45;;;;;;;;;;5034105;28;20026;-63
2022/03/25 14:04:11;;;;;;;6.45;2.58;;;;;;;;;;5034354;28;20019;-66
2022/03/25 14:06:46;;;;;;;5.53;2.67;;;;;;;;;;5048188;28;20087;-63
2022/03/25 14:09:26;;;;;;;5.00;2.40;;;;;;;;;;5049666;28;20029;-64
2022/03/25 14:11:52;;;;;;;6.65;2.75;;;;;;;;;;5051164;28;20028;-64
2022/03/25 14:14:28;;;;;;;5.57;2.30;;;;;;;;;;5046871;28;20108;-65
2022/03/25 14:16:54;;;;;;;9.82;2.90;;;;;;;;;;5044315;28;20114;-64
2022/03/25 14:19:21;;;;;;;6.53;2.63;;;;;;;;;;5050072;28;20021;-65
2022/03/25 14:21:47;;;;;;;8.50;2.50;;;;;;;;;;5050369;28;20018;-64
2022/03/25 14:24:33;;;;;;;8.35;2.60;;;;;;;;;;5032678;28;20029;-64
2022/03/25 14:27:00;;;;;;;7.97;3.10;;;;;;;;;;5033796;28;20029;-65
2022/03/25 14:29:26;;;;;;;8.85;3.45;;;;;;;;;;5033521;28;20021;-63
2022/03/25 14:31:52;;;;;;;8.57;2.90;;;;;;;;;;5033558;28;20029;-65
2022/03/25 14:34:18;;;;;;;11.73;3.10;;;;;;;;;;5051779;28;20028;-64
2022/03/25 14:36:45;;;;;;;5.90;2.80;;;;;;;;;;5037752;28;20092;-62
2022/03/25 14:39:11;;;;;;;7.45;2.85;;;;;;;;;;5032283;28;20053;-64